sensor_id;sensor_type;location;lat;lon;timestamp;temperature;humidity
31677;DHT22;18385;51.572;6.578;2022-12-29T00:01:17;14.80;68.10
31677;DHT22;18385;51.572;6.578;2022-12-29T00:03:45;14.80;68.00
31677;DHT22;18385;51.572;6.578;2022-12-29T00:06:11;14.80;68.00
31677;DHT22;18385;51.572;6.578;2022-12-29T00:08:37;14.80;68.20
31677;DHT22;18385;51.572;6.578;2022-12-29T00:11:11;14.70;68.20
31677;DHT22;18385;51.572;6.578;2022-12-29T00:13:37;14.70;68.20
31677;DHT22;18385;51.572;6.578;2022-12-29T00:16:22;14.60;68.20
31677;DHT22;18385;51.572;6.578;2022-12-29T00:18:48;14.50;68.40
31677;DHT22;18385;51.572;6.578;2022-12-29T00:21:15;14.40;68.60
31677;DHT22;18385;51.572;6.578;2022-12-29T00:24:00;14.30;68.80
31677;DHT22;18385;51.572;6.578;2022-12-29T00:26:46;14.20;69.00
31677;DHT22;18385;51.572;6.578;2022-12-29T00:29:31;14.20;69.20
31677;DHT22;18385;51.572;6.578;2022-12-29T00:32:15;14.10;69.40
31677;DHT22;18385;51.572;6.578;2022-12-29T00:34:59;14.10;69.40
31677;DHT22;18385;51.572;6.578;2022-12-29T00:37:36;14.10;69.60
31677;DHT22;18385;51.572;6.578;2022-12-29T00:40:21;14.10;69.70
31677;DHT22;18385;51.572;6.578;2022-12-29T00:43:06;14.10;69.70
31677;DHT22;18385;51.572;6.578;2022-12-29T00:45:50;14.20;69.90
31677;DHT22;18385;51.572;6.578;2022-12-29T00:48:16;14.20;69.80
31677;DHT22;18385;51.572;6.578;2022-12-29T00:51:01;14.30;69.80
31677;DHT22;18385;51.572;6.578;2022-12-29T00:53:27;14.30;70.50
31677;DHT22;18385;51.572;6.578;2022-12-29T00:55:53;14.30;69.80
31677;DHT22;18385;51.572;6.578;2022-12-29T00:58:19;14.30;69.70
31677;DHT22;18385;51.572;6.578;2022-12-29T01:00:44;14.40;69.70
31677;DHT22;18385;51.572;6.578;2022-12-29T01:03:11;14.40;69.80
31677;DHT22;18385;51.572;6.578;2022-12-29T01:05:37;14.30;69.80
31677;DHT22;18385;51.572;6.578;2022-12-29T01:08:02;14.30;69.80
31677;DHT22;18385;51.572;6.578;2022-12-29T01:10:29;14.30;69.90
31677;DHT22;18385;51.572;6.578;2022-12-29T01:12:54;14.30;69.90
31677;DHT22;18385;51.572;6.578;2022-12-29T01:15:20;14.40;70.00
31677;DHT22;18385;51.572;6.578;2022-12-29T01:17:47;14.40;70.00
31677;DHT22;18385;51.572;6.578;2022-12-29T01:20:13;14.40;70.00
31677;DHT22;18385;51.572;6.578;2022-12-29T01:22:39;14.40;70.10
31677;DHT22;18385;51.572;6.578;2022-12-29T01:25:05;14.40;70.10
31677;DHT22;18385;51.572;6.578;2022-12-29T01:27:31;14.40;70.10
31677;DHT22;18385;51.572;6.578;2022-12-29T01:29:57;14.40;70.10
31677;DHT22;18385;51.572;6.578;2022-12-29T01:32:22;14.50;70.20
31677;DHT22;18385;51.572;6.578;2022-12-29T01:34:48;14.50;70.20
31677;DHT22;18385;51.572;6.578;2022-12-29T01:37:14;14.50;70.20
31677;DHT22;18385;51.572;6.578;2022-12-29T01:39:39;14.50;70.20
31677;DHT22;18385;51.572;6.578;2022-12-29T01:42:19;14.50;70.20
31677;DHT22;18385;51.572;6.578;2022-12-29T01:44:49;14.60;70.30
31677;DHT22;18385;51.572;6.578;2022-12-29T01:47:35;14.60;70.20
31677;DHT22;18385;51.572;6.578;2022-12-29T01:50:27;14.60;70.10
31677;DHT22;18385;51.572;6.578;2022-12-29T01:53:07;14.60;70.10
31677;DHT22;18385;51.572;6.578;2022-12-29T01:55:40;14.70;70.10
31677;DHT22;18385;51.572;6.578;2022-12-29T01:58:07;14.70;70.00
31677;DHT22;18385;51.572;6.578;2022-12-29T02:00:33;14.80;70.00
31677;DHT22;18385;51.572;6.578;2022-12-29T02:02:59;14.80;69.90
31677;DHT22;18385;51.572;6.578;2022-12-29T02:05:33;14.80;69.80
31677;DHT22;18385;51.572;6.578;2022-12-29T02:08:02;14.80;69.80
31677;DHT22;18385;51.572;6.578;2022-12-29T02:10:30;14.80;69.70
31677;DHT22;18385;51.572;6.578;2022-12-29T02:12:56;14.90;69.70
31677;DHT22;18385;51.572;6.578;2022-12-29T02:15:43;14.90;69.70
31677;DHT22;18385;51.572;6.578;2022-12-29T02:32:11;14.90;69.40
31677;DHT22;18385;51.572;6.578;2022-12-29T02:34:46;14.80;69.50
31677;DHT22;18385;51.572;6.578;2022-12-29T02:37:26;14.80;69.60
31677;DHT22;18385;51.572;6.578;2022-12-29T02:43:03;14.80;69.50
31677;DHT22;18385;51.572;6.578;2022-12-29T02:45:53;14.90;69.40
31677;DHT22;18385;51.572;6.578;2022-12-29T02:48:27;15.00;69.30
31677;DHT22;18385;51.572;6.578;2022-12-29T02:51:10;15.00;69.10
31677;DHT22;18385;51.572;6.578;2022-12-29T02:53:36;15.10;69.00
31677;DHT22;18385;51.572;6.578;2022-12-29T02:56:21;15.10;69.70
31677;DHT22;18385;51.572;6.578;2022-12-29T02:58:47;15.10;68.90
31677;DHT22;18385;51.572;6.578;2022-12-29T03:04:17;15.20;68.70
31677;DHT22;18385;51.572;6.578;2022-12-29T03:07:20;15.10;68.50
31677;DHT22;18385;51.572;6.578;2022-12-29T03:10:14;15.10;68.50
31677;DHT22;18385;51.572;6.578;2022-12-29T03:13:02;15.10;68.50
31677;DHT22;18385;51.572;6.578;2022-12-29T03:18:46;15.00;68.50
31677;DHT22;18385;51.572;6.578;2022-12-29T03:21:16;15.00;68.40
31677;DHT22;18385;51.572;6.578;2022-12-29T03:23:45;15.00;68.40
31677;DHT22;18385;51.572;6.578;2022-12-29T03:26:14;15.00;68.40
31677;DHT22;18385;51.572;6.578;2022-12-29T03:28:50;15.00;68.30
31677;DHT22;18385;51.572;6.578;2022-12-29T03:31:21;15.00;68.30
31677;DHT22;18385;51.572;6.578;2022-12-29T03:33:49;15.00;68.30
31677;DHT22;18385;51.572;6.578;2022-12-29T03:36:32;15.00;68.20
31677;DHT22;18385;51.572;6.578;2022-12-29T03:39:08;14.90;68.80
31677;DHT22;18385;51.572;6.578;2022-12-29T03:41:35;14.60;68.30
31677;DHT22;18385;51.572;6.578;2022-12-29T03:44:05;14.40;68.60
31677;DHT22;18385;51.572;6.578;2022-12-29T03:46:33;14.20;69.00
31677;DHT22;18385;51.572;6.578;2022-12-29T03:48:59;14.00;69.50
31677;DHT22;18385;51.572;6.578;2022-12-29T03:51:24;13.80;69.50
31677;DHT22;18385;51.572;6.578;2022-12-29T03:53:50;13.50;69.80
31677;DHT22;18385;51.572;6.578;2022-12-29T03:56:16;13.30;70.30
31677;DHT22;18385;51.572;6.578;2022-12-29T03:58:42;13.10;70.60
31677;DHT22;18385;51.572;6.578;2022-12-29T04:01:11;13.00;71.00
31677;DHT22;18385;51.572;6.578;2022-12-29T04:03:38;12.90;71.20
31677;DHT22;18385;51.572;6.578;2022-12-29T04:06:04;12.90;71.40
31677;DHT22;18385;51.572;6.578;2022-12-29T04:08:37;12.90;71.50
31677;DHT22;18385;51.572;6.578;2022-12-29T04:11:04;13.00;71.50
31677;DHT22;18385;51.572;6.578;2022-12-29T04:13:30;13.00;71.50
31677;DHT22;18385;51.572;6.578;2022-12-29T04:15:56;13.00;71.60
31677;DHT22;18385;51.572;6.578;2022-12-29T04:18:22;13.10;71.50
31677;DHT22;18385;51.572;6.578;2022-12-29T04:20:47;13.00;71.50
31677;DHT22;18385;51.572;6.578;2022-12-29T04:23:27;12.90;71.50
31677;DHT22;18385;51.572;6.578;2022-12-29T04:25:53;12.80;71.60
31677;DHT22;18385;51.572;6.578;2022-12-29T04:28:19;12.70;71.70
31677;DHT22;18385;51.572;6.578;2022-12-29T04:31:08;12.70;72.00
31677;DHT22;18385;51.572;6.578;2022-12-29T04:33:38;12.70;72.10
31677;DHT22;18385;51.572;6.578;2022-12-29T04:36:04;12.70;72.20
31677;DHT22;18385;51.572;6.578;2022-12-29T04:38:30;12.60;72.10
31677;DHT22;18385;51.572;6.578;2022-12-29T04:40:59;12.60;72.20
31677;DHT22;18385;51.572;6.578;2022-12-29T04:43:26;12.60;72.30
31677;DHT22;18385;51.572;6.578;2022-12-29T04:46:12;12.50;72.30
31677;DHT22;18385;51.572;6.578;2022-12-29T04:48:47;12.60;72.40
31677;DHT22;18385;51.572;6.578;2022-12-29T04:51:25;12.60;72.40
31677;DHT22;18385;51.572;6.578;2022-12-29T04:53:50;12.60;72.20
31677;DHT22;18385;51.572;6.578;2022-12-29T04:56:16;12.60;72.30
31677;DHT22;18385;51.572;6.578;2022-12-29T04:58:42;12.50;72.30
31677;DHT22;18385;51.572;6.578;2022-12-29T05:01:08;12.50;72.50
31677;DHT22;18385;51.572;6.578;2022-12-29T05:03:33;12.50;72.60
31677;DHT22;18385;51.572;6.578;2022-12-29T05:05:59;12.50;72.70
31677;DHT22;18385;51.572;6.578;2022-12-29T05:08:26;12.50;72.70
31677;DHT22;18385;51.572;6.578;2022-12-29T05:10:52;12.40;72.70
31677;DHT22;18385;51.572;6.578;2022-12-29T05:13:18;12.50;72.80
31677;DHT22;18385;51.572;6.578;2022-12-29T05:15:49;12.40;72.80
31677;DHT22;18385;51.572;6.578;2022-12-29T05:18:15;12.40;72.80
31677;DHT22;18385;51.572;6.578;2022-12-29T05:20:41;12.40;72.80
31677;DHT22;18385;51.572;6.578;2022-12-29T05:23:07;12.30;72.80
31677;DHT22;18385;51.572;6.578;2022-12-29T05:25:33;12.30;72.90
31677;DHT22;18385;51.572;6.578;2022-12-29T05:28:13;12.30;73.00
31677;DHT22;18385;51.572;6.578;2022-12-29T05:30:48;12.20;73.10
31677;DHT22;18385;51.572;6.578;2022-12-29T05:33:15;12.20;73.20
31677;DHT22;18385;51.572;6.578;2022-12-29T05:35:40;12.20;73.30
31677;DHT22;18385;51.572;6.578;2022-12-29T05:38:06;12.20;73.40
31677;DHT22;18385;51.572;6.578;2022-12-29T05:40:32;12.20;73.30
31677;DHT22;18385;51.572;6.578;2022-12-29T05:43:01;12.20;73.50
31677;DHT22;18385;51.572;6.578;2022-12-29T05:45:51;12.20;73.60
31677;DHT22;18385;51.572;6.578;2022-12-29T05:48:28;12.10;73.30
31677;DHT22;18385;51.572;6.578;2022-12-29T05:51:26;12.10;73.40
31677;DHT22;18385;51.572;6.578;2022-12-29T05:53:53;12.10;73.60
31677;DHT22;18385;51.572;6.578;2022-12-29T05:56:19;12.10;73.60
31677;DHT22;18385;51.572;6.578;2022-12-29T05:58:51;12.10;73.60
31677;DHT22;18385;51.572;6.578;2022-12-29T06:01:17;12.10;73.70
31677;DHT22;18385;51.572;6.578;2022-12-29T06:03:44;12.20;73.70
31677;DHT22;18385;51.572;6.578;2022-12-29T06:06:09;12.20;73.70
31677;DHT22;18385;51.572;6.578;2022-12-29T06:08:36;12.30;73.70
31677;DHT22;18385;51.572;6.578;2022-12-29T06:11:02;12.30;73.40
31677;DHT22;18385;51.572;6.578;2022-12-29T06:13:28;12.40;73.50
31677;DHT22;18385;51.572;6.578;2022-12-29T06:15:55;12.50;73.60
31677;DHT22;18385;51.572;6.578;2022-12-29T06:18:21;12.70;73.60
31677;DHT22;18385;51.572;6.578;2022-12-29T06:20:47;12.80;73.20
31677;DHT22;18385;51.572;6.578;2022-12-29T06:23:13;12.90;72.90
31677;DHT22;18385;51.572;6.578;2022-12-29T06:25:39;12.80;72.60
31677;DHT22;18385;51.572;6.578;2022-12-29T06:28:05;12.70;72.50
31677;DHT22;18385;51.572;6.578;2022-12-29T06:30:31;12.70;72.70
31677;DHT22;18385;51.572;6.578;2022-12-29T06:32:59;12.70;72.70
31677;DHT22;18385;51.572;6.578;2022-12-29T06:35:25;12.60;72.70
31677;DHT22;18385;51.572;6.578;2022-12-29T06:37:51;12.60;72.70
31677;DHT22;18385;51.572;6.578;2022-12-29T06:40:17;12.60;72.90
31677;DHT22;18385;51.572;6.578;2022-12-29T06:43:01;12.60;73.00
31677;DHT22;18385;51.572;6.578;2022-12-29T06:45:45;12.70;72.80
31677;DHT22;18385;51.572;6.578;2022-12-29T06:48:11;12.80;72.90
31677;DHT22;18385;51.572;6.578;2022-12-29T06:50:36;12.90;72.80
31677;DHT22;18385;51.572;6.578;2022-12-29T06:53:02;12.90;72.50
31677;DHT22;18385;51.572;6.578;2022-12-29T06:55:28;12.90;72.30
31677;DHT22;18385;51.572;6.578;2022-12-29T06:57:55;12.90;72.50
31677;DHT22;18385;51.572;6.578;2022-12-29T07:00:21;13.00;73.30
31677;DHT22;18385;51.572;6.578;2022-12-29T07:02:47;13.00;72.30
31677;DHT22;18385;51.572;6.578;2022-12-29T07:05:13;12.90;72.20
31677;DHT22;18385;51.572;6.578;2022-12-29T07:07:39;12.90;72.30
31677;DHT22;18385;51.572;6.578;2022-12-29T07:10:05;12.90;72.50
31677;DHT22;18385;51.572;6.578;2022-12-29T07:12:30;13.00;72.70
31677;DHT22;18385;51.572;6.578;2022-12-29T07:14:56;13.00;72.60
31677;DHT22;18385;51.572;6.578;2022-12-29T07:17:22;13.10;72.40
31677;DHT22;18385;51.572;6.578;2022-12-29T07:19:48;13.20;72.30
31677;DHT22;18385;51.572;6.578;2022-12-29T07:22:13;13.20;72.10
31677;DHT22;18385;51.572;6.578;2022-12-29T07:24:39;13.30;72.10
31677;DHT22;18385;51.572;6.578;2022-12-29T07:27:05;13.20;71.90
31677;DHT22;18385;51.572;6.578;2022-12-29T07:29:31;13.20;71.80
31677;DHT22;18385;51.572;6.578;2022-12-29T07:31:56;13.10;71.60
31677;DHT22;18385;51.572;6.578;2022-12-29T07:34:22;13.00;71.70
31677;DHT22;18385;51.572;6.578;2022-12-29T07:36:48;12.90;72.00
31677;DHT22;18385;51.572;6.578;2022-12-29T07:39:13;12.90;72.10
31677;DHT22;18385;51.572;6.578;2022-12-29T07:41:39;12.90;72.00
31677;DHT22;18385;51.572;6.578;2022-12-29T07:44:09;12.90;72.00
31677;DHT22;18385;51.572;6.578;2022-12-29T07:46:54;12.90;72.00
31677;DHT22;18385;51.572;6.578;2022-12-29T07:49:19;12.90;72.00
31677;DHT22;18385;51.572;6.578;2022-12-29T07:51:45;12.90;72.00
31677;DHT22;18385;51.572;6.578;2022-12-29T07:54:11;13.00;72.00
31677;DHT22;18385;51.572;6.578;2022-12-29T07:56:38;13.00;71.70
31677;DHT22;18385;51.572;6.578;2022-12-29T07:59:03;13.00;71.60
31677;DHT22;18385;51.572;6.578;2022-12-29T08:01:29;13.00;71.50
31677;DHT22;18385;51.572;6.578;2022-12-29T08:03:55;13.00;71.30
31677;DHT22;18385;51.572;6.578;2022-12-29T08:06:20;13.00;71.20
31677;DHT22;18385;51.572;6.578;2022-12-29T08:08:47;13.00;71.20
31677;DHT22;18385;51.572;6.578;2022-12-29T08:11:12;12.90;71.10
31677;DHT22;18385;51.572;6.578;2022-12-29T08:13:38;12.90;71.30
31677;DHT22;18385;51.572;6.578;2022-12-29T08:16:04;13.10;71.40
31677;DHT22;18385;51.572;6.578;2022-12-29T08:18:29;13.20;71.20
31677;DHT22;18385;51.572;6.578;2022-12-29T08:20:55;13.40;70.80
31677;DHT22;18385;51.572;6.578;2022-12-29T08:23:21;13.50;70.40
31677;DHT22;18385;51.572;6.578;2022-12-29T08:25:46;13.60;70.10
31677;DHT22;18385;51.572;6.578;2022-12-29T08:28:12;13.70;69.90
31677;DHT22;18385;51.572;6.578;2022-12-29T08:30:38;13.70;69.60
31677;DHT22;18385;51.572;6.578;2022-12-29T08:33:04;13.80;69.50
31677;DHT22;18385;51.572;6.578;2022-12-29T08:35:29;13.80;69.00
31677;DHT22;18385;51.572;6.578;2022-12-29T08:37:55;13.70;68.80
31677;DHT22;18385;51.572;6.578;2022-12-29T08:40:20;13.60;68.70
31677;DHT22;18385;51.572;6.578;2022-12-29T08:42:46;13.50;69.00
31677;DHT22;18385;51.572;6.578;2022-12-29T08:45:12;13.50;69.00
31677;DHT22;18385;51.572;6.578;2022-12-29T08:47:37;13.50;69.10
31677;DHT22;18385;51.572;6.578;2022-12-29T08:50:03;13.40;68.90
31677;DHT22;18385;51.572;6.578;2022-12-29T08:52:29;13.40;69.00
31677;DHT22;18385;51.572;6.578;2022-12-29T08:54:55;13.50;69.10
31677;DHT22;18385;51.572;6.578;2022-12-29T08:57:20;13.60;68.90
31677;DHT22;18385;51.572;6.578;2022-12-29T08:59:58;13.70;68.90
31677;DHT22;18385;51.572;6.578;2022-12-29T09:02:23;13.80;68.50
31677;DHT22;18385;51.572;6.578;2022-12-29T09:04:49;13.90;68.60
31677;DHT22;18385;51.572;6.578;2022-12-29T09:07:14;14.00;68.50
31677;DHT22;18385;51.572;6.578;2022-12-29T09:09:40;14.00;68.40
31677;DHT22;18385;51.572;6.578;2022-12-29T09:12:06;14.00;68.20
31677;DHT22;18385;51.572;6.578;2022-12-29T09:14:31;14.10;67.90
31677;DHT22;18385;51.572;6.578;2022-12-29T09:16:57;14.10;68.00
31677;DHT22;18385;51.572;6.578;2022-12-29T09:19:41;14.10;67.50
31677;DHT22;18385;51.572;6.578;2022-12-29T09:22:07;14.20;67.50
31677;DHT22;18385;51.572;6.578;2022-12-29T09:24:32;14.20;67.50
31677;DHT22;18385;51.572;6.578;2022-12-29T09:26:58;14.30;67.20
31677;DHT22;18385;51.572;6.578;2022-12-29T09:29:24;14.20;66.80
31677;DHT22;18385;51.572;6.578;2022-12-29T09:31:49;14.20;66.40
31677;DHT22;18385;51.572;6.578;2022-12-29T09:34:15;14.10;66.60
31677;DHT22;18385;51.572;6.578;2022-12-29T09:36:41;14.10;66.90
31677;DHT22;18385;51.572;6.578;2022-12-29T09:39:07;14.10;66.50
31677;DHT22;18385;51.572;6.578;2022-12-29T09:41:45;14.00;66.50
31677;DHT22;18385;51.572;6.578;2022-12-29T09:46:40;14.00;66.70
31677;DHT22;18385;51.572;6.578;2022-12-29T09:51:55;14.10;66.40
31677;DHT22;18385;51.572;6.578;2022-12-29T09:54:43;14.10;66.40
31677;DHT22;18385;51.572;6.578;2022-12-29T09:57:26;14.20;66.30
31677;DHT22;18385;51.572;6.578;2022-12-29T09:59:57;14.20;66.20
31677;DHT22;18385;51.572;6.578;2022-12-29T10:02:37;14.30;66.10
31677;DHT22;18385;51.572;6.578;2022-12-29T10:05:14;14.30;66.00
31677;DHT22;18385;51.572;6.578;2022-12-29T10:07:45;14.30;65.70
31677;DHT22;18385;51.572;6.578;2022-12-29T10:10:30;14.40;65.70
31677;DHT22;18385;51.572;6.578;2022-12-29T10:13:29;14.40;65.30
31677;DHT22;18385;51.572;6.578;2022-12-29T10:24:21;14.70;64.90
31677;DHT22;18385;51.572;6.578;2022-12-29T10:26:51;14.70;64.20
31677;DHT22;18385;51.572;6.578;2022-12-29T10:29:24;14.70;64.40
31677;DHT22;18385;51.572;6.578;2022-12-29T10:34:30;14.70;63.90
31677;DHT22;18385;51.572;6.578;2022-12-29T10:39:51;14.80;63.90
31677;DHT22;18385;51.572;6.578;2022-12-29T10:42:36;14.90;63.50
31677;DHT22;18385;51.572;6.578;2022-12-29T10:45:04;15.00;63.40
31677;DHT22;18385;51.572;6.578;2022-12-29T10:47:35;15.00;63.10
31677;DHT22;18385;51.572;6.578;2022-12-29T10:50:04;15.00;63.00
31677;DHT22;18385;51.572;6.578;2022-12-29T10:52:33;15.00;62.90
31677;DHT22;18385;51.572;6.578;2022-12-29T10:55:13;15.00;62.80
31677;DHT22;18385;51.572;6.578;2022-12-29T10:57:45;15.00;62.90
31677;DHT22;18385;51.572;6.578;2022-12-29T11:00:12;15.00;62.70
31677;DHT22;18385;51.572;6.578;2022-12-29T11:08:24;15.00;62.80
31677;DHT22;18385;51.572;6.578;2022-12-29T11:11:25;15.10;62.40
31677;DHT22;18385;51.572;6.578;2022-12-29T11:14:07;15.10;62.60
31677;DHT22;18385;51.572;6.578;2022-12-29T11:16:35;15.10;62.00
31677;DHT22;18385;51.572;6.578;2022-12-29T11:19:02;15.10;62.30
31677;DHT22;18385;51.572;6.578;2022-12-29T11:21:34;15.00;61.90
31677;DHT22;18385;51.572;6.578;2022-12-29T11:26:49;14.90;62.00
31677;DHT22;18385;51.572;6.578;2022-12-29T11:31:53;14.90;61.70
31677;DHT22;18385;51.572;6.578;2022-12-29T11:34:34;15.10;62.20
31677;DHT22;18385;51.572;6.578;2022-12-29T11:37:04;15.20;61.60
31677;DHT22;18385;51.572;6.578;2022-12-29T11:42:18;15.20;61.20
31677;DHT22;18385;51.572;6.578;2022-12-29T11:44:47;15.10;61.30
31677;DHT22;18385;51.572;6.578;2022-12-29T11:47:30;15.10;61.30
31677;DHT22;18385;51.572;6.578;2022-12-29T11:50:07;15.10;61.20
31677;DHT22;18385;51.572;6.578;2022-12-29T11:52:36;15.10;61.20
31677;DHT22;18385;51.572;6.578;2022-12-29T11:55:13;15.00;61.10
31677;DHT22;18385;51.572;6.578;2022-12-29T11:57:43;15.00;61.20
31677;DHT22;18385;51.572;6.578;2022-12-29T12:00:20;15.10;61.30
31677;DHT22;18385;51.572;6.578;2022-12-29T12:13:42;15.10;60.70
31677;DHT22;18385;51.572;6.578;2022-12-29T12:16:18;15.10;60.70
31677;DHT22;18385;51.572;6.578;2022-12-29T12:18:57;15.10;60.60
31677;DHT22;18385;51.572;6.578;2022-12-29T12:21:38;15.10;60.50
31677;DHT22;18385;51.572;6.578;2022-12-29T12:24:20;15.00;60.40
31677;DHT22;18385;51.572;6.578;2022-12-29T12:29:43;15.10;60.60
31677;DHT22;18385;51.572;6.578;2022-12-29T12:32:19;15.10;60.60
31677;DHT22;18385;51.572;6.578;2022-12-29T12:34:48;15.10;60.60
31677;DHT22;18385;51.572;6.578;2022-12-29T12:45:39;15.10;60.70
31677;DHT22;18385;51.572;6.578;2022-12-29T13:02:17;15.10;60.10
31677;DHT22;18385;51.572;6.578;2022-12-29T13:16:04;15.40;60.00
31677;DHT22;18385;51.572;6.578;2022-12-29T13:18:49;15.40;59.80
31677;DHT22;18385;51.572;6.578;2022-12-29T13:26:58;15.40;59.50
31677;DHT22;18385;51.572;6.578;2022-12-29T13:33:14;15.20;59.40
31677;DHT22;18385;51.572;6.578;2022-12-29T13:36:02;15.30;59.70
31677;DHT22;18385;51.572;6.578;2022-12-29T13:38:42;15.40;59.70
31677;DHT22;18385;51.572;6.578;2022-12-29T13:41:21;15.50;59.60
31677;DHT22;18385;51.572;6.578;2022-12-29T13:43:49;15.50;59.40
31677;DHT22;18385;51.572;6.578;2022-12-29T13:46:37;15.50;59.30
31677;DHT22;18385;51.572;6.578;2022-12-29T13:49:13;15.40;59.00
31677;DHT22;18385;51.572;6.578;2022-12-29T13:51:49;15.30;59.20
31677;DHT22;18385;51.572;6.578;2022-12-29T13:57:26;15.10;59.10
31677;DHT22;18385;51.572;6.578;2022-12-29T14:07:59;14.60;59.50
31677;DHT22;18385;51.572;6.578;2022-12-29T14:10:35;14.60;59.60
31677;DHT22;18385;51.572;6.578;2022-12-29T14:13:21;14.60;59.70
31677;DHT22;18385;51.572;6.578;2022-12-29T14:15:56;14.60;59.80
31677;DHT22;18385;51.572;6.578;2022-12-29T14:18:28;14.70;59.80
31677;DHT22;18385;51.572;6.578;2022-12-29T14:20:56;14.80;59.80
31677;DHT22;18385;51.572;6.578;2022-12-29T14:26:14;14.80;59.50
31677;DHT22;18385;51.572;6.578;2022-12-29T14:28:46;14.80;59.50
31677;DHT22;18385;51.572;6.578;2022-12-29T14:37:00;14.60;59.70
31677;DHT22;18385;51.572;6.578;2022-12-29T14:39:42;14.50;59.70
31677;DHT22;18385;51.572;6.578;2022-12-29T14:42:15;14.40;59.80
31677;DHT22;18385;51.572;6.578;2022-12-29T14:44:58;14.40;59.80
31677;DHT22;18385;51.572;6.578;2022-12-29T14:50:05;14.30;59.80
31677;DHT22;18385;51.572;6.578;2022-12-29T14:52:32;14.30;59.90
31677;DHT22;18385;51.572;6.578;2022-12-29T14:57:36;14.20;59.90
31677;DHT22;18385;51.572;6.578;2022-12-29T15:00:15;14.20;59.80
31677;DHT22;18385;51.572;6.578;2022-12-29T15:02:46;14.20;59.90
31677;DHT22;18385;51.572;6.578;2022-12-29T15:05:52;14.20;59.90
31677;DHT22;18385;51.572;6.578;2022-12-29T15:08:22;14.20;59.90
31677;DHT22;18385;51.572;6.578;2022-12-29T15:11:12;14.10;59.90
31677;DHT22;18385;51.572;6.578;2022-12-29T15:13:43;14.10;59.90
31677;DHT22;18385;51.572;6.578;2022-12-29T15:16:25;14.00;59.80
31677;DHT22;18385;51.572;6.578;2022-12-29T15:18:52;14.00;59.90
31677;DHT22;18385;51.572;6.578;2022-12-29T15:21:31;13.90;59.80
31677;DHT22;18385;51.572;6.578;2022-12-29T15:23:57;13.90;59.90
31677;DHT22;18385;51.572;6.578;2022-12-29T15:26:23;13.90;60.00
31677;DHT22;18385;51.572;6.578;2022-12-29T15:29:01;13.90;60.00
31677;DHT22;18385;51.572;6.578;2022-12-29T15:31:26;14.00;60.00
31677;DHT22;18385;51.572;6.578;2022-12-29T15:33:55;14.00;59.90
31677;DHT22;18385;51.572;6.578;2022-12-29T15:36:28;14.00;59.80
31677;DHT22;18385;51.572;6.578;2022-12-29T15:38:54;14.00;59.80
31677;DHT22;18385;51.572;6.578;2022-12-29T15:41:31;14.00;59.80
31677;DHT22;18385;51.572;6.578;2022-12-29T15:46:31;14.00;59.80
31677;DHT22;18385;51.572;6.578;2022-12-29T15:48:57;13.90;59.70
31677;DHT22;18385;51.572;6.578;2022-12-29T15:51:30;13.90;59.70
31677;DHT22;18385;51.572;6.578;2022-12-29T15:53:59;13.80;59.80
31677;DHT22;18385;51.572;6.578;2022-12-29T15:56:27;13.80;59.80
31677;DHT22;18385;51.572;6.578;2022-12-29T15:58:53;13.80;59.80
31677;DHT22;18385;51.572;6.578;2022-12-29T16:01:29;13.80;59.90
31677;DHT22;18385;51.572;6.578;2022-12-29T16:03:57;13.80;59.90
31677;DHT22;18385;51.572;6.578;2022-12-29T16:09:32;13.60;59.90
31677;DHT22;18385;51.572;6.578;2022-12-29T16:11:58;13.60;60.00
31677;DHT22;18385;51.572;6.578;2022-12-29T16:14:32;13.60;60.20
31677;DHT22;18385;51.572;6.578;2022-12-29T16:17:02;13.50;60.00
31677;DHT22;18385;51.572;6.578;2022-12-29T16:19:42;13.20;59.90
31677;DHT22;18385;51.572;6.578;2022-12-29T16:22:34;13.00;60.30
31677;DHT22;18385;51.572;6.578;2022-12-29T16:25:04;12.80;60.80
31677;DHT22;18385;51.572;6.578;2022-12-29T16:27:40;12.60;61.20
31677;DHT22;18385;51.572;6.578;2022-12-29T16:30:28;12.40;61.60
31677;DHT22;18385;51.572;6.578;2022-12-29T16:32:56;12.20;62.10
31677;DHT22;18385;51.572;6.578;2022-12-29T16:35:28;12.10;62.50
31677;DHT22;18385;51.572;6.578;2022-12-29T16:38:12;11.90;62.90
31677;DHT22;18385;51.572;6.578;2022-12-29T16:40:59;11.80;63.40
31677;DHT22;18385;51.572;6.578;2022-12-29T16:51:05;11.80;64.00
31677;DHT22;18385;51.572;6.578;2022-12-29T16:53:37;11.70;64.00
31677;DHT22;18385;51.572;6.578;2022-12-29T16:56:19;11.70;64.10
31677;DHT22;18385;51.572;6.578;2022-12-29T16:58:48;11.60;64.40
31677;DHT22;18385;51.572;6.578;2022-12-29T17:01:14;11.60;64.40
31677;DHT22;18385;51.572;6.578;2022-12-29T17:03:51;11.50;64.30
31677;DHT22;18385;51.572;6.578;2022-12-29T17:06:19;11.50;64.60
31677;DHT22;18385;51.572;6.578;2022-12-29T17:08:46;11.40;64.70
31677;DHT22;18385;51.572;6.578;2022-12-29T17:11:21;11.40;64.90
31677;DHT22;18385;51.572;6.578;2022-12-29T17:16:42;11.20;65.00
31677;DHT22;18385;51.572;6.578;2022-12-29T17:19:18;11.20;65.00
31677;DHT22;18385;51.572;6.578;2022-12-29T17:21:45;11.20;65.20
31677;DHT22;18385;51.572;6.578;2022-12-29T17:24:18;11.00;65.20
31677;DHT22;18385;51.572;6.578;2022-12-29T17:26:45;11.00;65.70
31677;DHT22;18385;51.572;6.578;2022-12-29T17:29:19;11.00;65.80
31677;DHT22;18385;51.572;6.578;2022-12-29T17:31:46;11.00;66.00
31677;DHT22;18385;51.572;6.578;2022-12-29T17:34:12;11.10;66.00
31677;DHT22;18385;51.572;6.578;2022-12-29T17:36:38;11.10;66.10
31677;DHT22;18385;51.572;6.578;2022-12-29T17:39:05;11.20;66.00
31677;DHT22;18385;51.572;6.578;2022-12-29T17:41:33;11.10;65.80
31677;DHT22;18385;51.572;6.578;2022-12-29T17:44:00;11.10;65.60
31677;DHT22;18385;51.572;6.578;2022-12-29T17:46:26;11.00;65.50
31677;DHT22;18385;51.572;6.578;2022-12-29T17:48:52;10.90;65.70
31677;DHT22;18385;51.572;6.578;2022-12-29T17:51:19;10.90;65.90
31677;DHT22;18385;51.572;6.578;2022-12-29T17:53:45;10.90;66.00
31677;DHT22;18385;51.572;6.578;2022-12-29T17:56:12;10.90;66.00
31677;DHT22;18385;51.572;6.578;2022-12-29T17:58:38;10.90;66.00
31677;DHT22;18385;51.572;6.578;2022-12-29T18:01:04;10.90;66.90
31677;DHT22;18385;51.572;6.578;2022-12-29T18:03:36;10.90;66.10
31677;DHT22;18385;51.572;6.578;2022-12-29T18:06:03;10.90;66.10
31677;DHT22;18385;51.572;6.578;2022-12-29T18:08:31;10.80;66.10
31677;DHT22;18385;51.572;6.578;2022-12-29T18:10:57;10.80;66.20
31677;DHT22;18385;51.572;6.578;2022-12-29T18:13:26;10.70;66.30
31677;DHT22;18385;51.572;6.578;2022-12-29T18:15:55;10.70;66.40
31677;DHT22;18385;51.572;6.578;2022-12-29T18:18:29;10.60;66.50
31677;DHT22;18385;51.572;6.578;2022-12-29T18:20:58;10.50;66.60
31677;DHT22;18385;51.572;6.578;2022-12-29T18:23:29;10.50;66.60
31677;DHT22;18385;51.572;6.578;2022-12-29T18:26:09;10.40;66.60
31677;DHT22;18385;51.572;6.578;2022-12-29T18:28:37;10.40;66.90